Time;durP1;ratioP1;P1;durP2;ratioP2;P2;SDS_P1;SDS_P2;PMS_P1;PMS_P2;Temp;Humidity;BMP_temperature;BMP_pressure;BME280_temperature;BME280_humidity;BME280_pressure;Samples;Min_cycle;Max_cycle;Signal;HPM_P1;HPM_P2
2023/09/01 00:00:46;;;;;;;4.85;1.42;;;;;;;;;;5051647;28;20064;-82
2023/09/01 00:03:13;;;;;;;5.22;1.05;;;;;;;;;;5046233;28;20104;-82
2023/09/01 00:05:39;;;;;;;3.15;1.10;;;;;;;;;;5051057;28;20041;-82
2023/09/01 00:08:05;;;;;;;3.97;1.92;;;14.60;99.90;;;;;;5047568;28;20045;-82
2023/09/01 00:10:35;;;;;;;3.70;1.30;;;;;;;;;;5046899;28;20078;-82
2023/09/01 00:13:02;;;;;;;2.17;1.30;;;;;;;;;;5047820;28;20025;-82
2023/09/01 00:15:28;;;;;;;2.88;1.38;;;;;;;;;;5051709;28;20121;-82
2023/09/01 00:17:54;;;;;;;2.55;1.23;;;;;;;;;;5048404;28;20037;-82
2023/09/01 00:20:20;;;;;;;2.83;1.70;;;;;;;;;;5057787;28;20028;-83
2023/09/01 00:22:46;;;;;;;3.90;1.23;;;;;;;;;;5053262;28;20033;-82
2023/09/01 00:25:12;;;;;;;3.13;1.23;;;;;;;;;;5040411;28;20033;-82
2023/09/01 00:27:38;;;;;;;2.25;0.90;;;;;;;;;;5032323;28;20528;-82
2023/09/01 00:30:04;;;;;;;6.00;1.55;;;;;;;;;;5033491;28;20069;-82
2023/09/01 00:32:30;;;;;;;3.97;1.30;;;;;;;;;;5049097;28;20604;-82
2023/09/01 00:34:58;;;;;;;6.15;1.80;;;14.40;99.90;;;;;;5038680;28;20021;-82
2023/09/01 00:37:24;;;;;;;5.30;1.92;;;14.60;99.90;;;;;;5047818;28;20021;-82
2023/09/01 00:39:50;;;;;;;6.38;1.60;;;14.50;99.90;;;;;;5045408;28;20021;-83
2023/09/01 00:42:16;;;;;;;2.50;1.17;;;;;;;;;;5048800;28;20032;-82
2023/09/01 00:44:42;;;;;;;4.68;1.33;;;;;;;;;;5046506;28;20391;-82
2023/09/01 00:47:08;;;;;;;5.78;1.20;;;;;;;;;;5040843;28;20025;-82
2023/09/01 00:49:36;;;;;;;10.20;1.98;;;;;;;;;;5050660;28;20032;-82
2023/09/01 00:52:02;;;;;;;3.45;1.98;;;;;;;;;;5049672;28;20590;-82
2023/09/01 00:54:29;;;;;;;2.83;1.33;;;;;;;;;;5045095;28;20511;-81
2023/09/01 00:56:55;;;;;;;3.42;1.38;;;;;;;;;;5052317;28;20403;-81
2023/09/01 00:59:21;;;;;;;2.60;1.48;;;;;;;;;;5051029;28;20028;-82
2023/09/01 01:01:48;;;;;;;5.13;1.65;;;14.10;99.90;;;;;;5048881;28;20028;-82
2023/09/01 01:04:15;;;;;;;3.53;1.67;;;;;;;;;;5044004;28;20028;-81
2023/09/01 01:06:47;;;;;;;2.15;1.10;;;;;;;;;;5032292;28;20128;-81
2023/09/01 01:09:54;;;;;;;6.78;1.75;;;14.70;99.90;;;;;;5045123;28;20025;-82
2023/09/01 01:12:38;;;;;;;4.30;1.33;;;14.30;99.90;;;;;;4962387;28;20119;-81
2023/09/01 01:15:09;;;;;;;8.05;1.80;;;;;;;;;;5027350;28;20608;-82
2023/09/01 01:17:37;;;;;;;4.25;2.10;;;;;;;;;;5045424;28;20119;-81
2023/09/01 01:20:13;;;;;;;4.95;1.75;;;;;;;;;;5045603;28;20831;-83
2023/09/01 01:22:42;;;;;;;8.45;1.52;;;;;;;;;;5037534;28;20025;-81
2023/09/01 01:25:09;;;;;;;4.13;1.60;;;;;;;;;;5009450;28;20033;-81
2023/09/01 01:27:35;;;;;;;9.05;1.60;;;;;;;;;;5021754;28;20829;-81
2023/09/01 01:30:01;;;;;;;4.07;1.80;;;;;;;;;;5020499;28;20037;-81
2023/09/01 01:32:28;;;;;;;8.90;1.67;;;;;;;;;;5031849;28;20086;-82
2023/09/01 01:35:08;;;;;;;4.05;1.42;;;14.80;99.90;;;;;;5040747;28;20651;-82
2023/09/01 01:37:42;;;;;;;9.05;2.28;;;;;;;;;;5051405;28;20403;-81
2023/09/01 01:40:08;;;;;;;9.77;1.80;;;;;;;;;;5047987;28;20028;-82
2023/09/01 01:42:36;;;;;;;5.55;2.42;;;;;;;;;;5045381;28;20059;-81
2023/09/01 01:45:03;;;;;;;5.45;1.85;;;;;;;;;;5038838;28;20093;-81
2023/09/01 01:47:29;;;;;;;3.08;1.58;;;14.30;99.90;;;;;;5045183;28;20025;-81
2023/09/01 01:49:55;;;;;;;9.18;1.67;;;;;;;;;;5030030;28;20383;-82
2023/09/01 01:52:21;;;;;;;4.15;2.22;;;;;;;;;;5020622;28;20033;-81
2023/09/01 01:54:46;;;;;;;3.42;2.33;;;;;;;;;;5033755;28;20030;-81
2023/09/01 01:57:14;;;;;;;5.78;2.38;;;;;;;;;;5046768;28;20442;-80
2023/09/01 01:59:41;;;;;;;4.80;1.95;;;;;;;;;;5031861;28;20039;-81
2023/09/01 02:02:07;;;;;;;5.15;1.65;;;;;;;;;;5034384;28;20030;-81
2023/09/01 02:04:33;;;;;;;5.43;1.92;;;;;;;;;;5037634;28;20059;-82
2023/09/01 02:06:59;;;;;;;3.55;2.05;;;14.50;99.90;;;;;;5044659;28;20021;-81
2023/09/01 02:09:26;;;;;;;5.80;1.73;;;;;;;;;;5047601;28;20445;-82
2023/09/01 02:11:52;;;;;;;2.85;1.50;;;;;;;;;;5048430;28;20029;-82
2023/09/01 02:14:18;;;;;;;4.60;1.95;;;;;;;;;;5019734;28;20081;-82
2023/09/01 02:16:44;;;;;;;3.45;1.45;;;;;;;;;;5035624;28;20052;-82
2023/09/01 02:19:11;;;;;;;3.05;1.85;;;;;;;;;;5033030;28;20187;-82
2023/09/01 02:21:37;;;;;;;3.47;1.67;;;;;;;;;;5024763;28;20033;-82
2023/09/01 02:24:05;;;;;;;3.13;1.65;;;;;;;;;;5028976;28;20037;-81
2023/09/01 02:26:31;;;;;;;3.80;1.70;;;;;;;;;;5044218;28;20032;-81
2023/09/01 02:28:57;;;;;;;2.08;1.08;;;;;;;;;;5050420;28;20044;-80
2023/09/01 02:31:24;;;;;;;4.05;2.03;;;;;;;;;;5043909;28;20475;-82
2023/09/01 02:33:51;;;;;;;2.95;1.27;;;;;;;;;;5045220;28;20029;-82
2023/09/01 02:36:35;;;;;;;4.18;1.33;;;14.40;99.90;;;;;;5052397;28;20426;-81
2023/09/01 02:39:01;;;;;;;4.55;1.65;;;;;;;;;;5054592;28;20028;-81
2023/09/01 02:41:28;;;;;;;4.30;1.33;;;;;;;;;;5041113;28;20037;-81
2023/09/01 02:43:54;;;;;;;3.78;1.48;;;;;;;;;;5033945;28;20060;-83
2023/09/01 02:46:20;;;;;;;2.60;1.25;;;;;;;;;;5030977;28;20025;-82
2023/09/01 02:48:47;;;;;;;3.83;1.88;;;;;;;;;;5018524;28;20034;-83
2023/09/01 02:51:13;;;;;;;3.30;1.52;;;;;;;;;;5026194;28;20051;-82
2023/09/01 02:53:38;;;;;;;2.97;1.25;;;14.50;99.90;;;;;;5018087;28;20033;-82
2023/09/01 02:56:05;;;;;;;3.25;1.30;;;14.50;99.90;;;;;;5044377;28;20407;-81
2023/09/01 02:58:30;;;;;;;2.95;1.13;;;14.50;99.90;;;;;;5043652;28;20486;-82
2023/09/01 03:00:56;;;;;;;5.68;1.85;;;;;;;;;;5046745;28;20104;-83
2023/09/01 03:03:23;;;;;;;3.95;2.00;;;;;;;;;;5041825;28;20029;-81
2023/09/01 03:05:50;;;;;;;3.45;1.35;;;;;;;;;;5041987;28;20484;-81
2023/09/01 03:08:18;;;;;;;2.83;1.25;;;;;;;;;;5046680;28;20035;-82
2023/09/01 03:10:44;;;;;;;3.22;1.42;;;;;;;;;;5025869;28;21021;-83
2023/09/01 03:13:10;;;;;;;4.18;1.80;;;;;;;;;;5045654;28;20041;-82
2023/09/01 03:15:36;;;;;;;2.35;1.30;;;;;;;;;;5036184;28;20047;-81
2023/09/01 03:18:02;;;;;;;2.97;1.50;;;;;;;;;;5028965;28;20024;-83
2023/09/01 03:20:28;;;;;;;2.78;1.33;;;;;;;;;;5034720;28;20075;-82
2023/09/01 03:22:54;;;;;;;2.88;1.48;;;;;;;;;;5029859;28;20052;-82
2023/09/01 03:25:20;;;;;;;3.03;1.42;;;;;;;;;;5028487;28;20033;-82
2023/09/01 03:27:46;;;;;;;2.50;1.48;;;;;;;;;;5053402;28;20415;-83
2023/09/01 03:30:12;;;;;;;2.60;1.45;;;;;;;;;;5049131;28;20044;-82
2023/09/01 03:32:38;;;;;;;4.25;2.08;;;;;;;;;;5048299;28;20024;-83
2023/09/01 03:35:07;;;;;;;1.95;1.20;;;14.00;99.90;;;;;;5040843;28;20032;-81
2023/09/01 03:37:34;;;;;;;3.30;1.70;;;;;;;;;;5043111;28;22849;-81
2023/09/01 03:39:59;;;;;;;3.33;1.40;;;14.50;99.90;;;;;;5056703;28;20029;-81
2023/09/01 03:42:26;;;;;;;4.00;1.50;;;;;;;;;;5050767;28;20036;-81
2023/09/01 03:44:52;;;;;;;3.90;1.55;;;;;;;;;;5028574;28;20029;-81
2023/09/01 03:47:19;;;;;;;3.08;1.30;;;;;;;;;;5046358;28;20136;-82
2023/09/01 03:49:44;;;;;;;7.75;1.70;;;14.70;99.90;;;;;;5035458;28;20013;-82
2023/09/01 03:52:10;;;;;;;3.42;1.50;;;14.80;99.90;;;;;;5041478;28;20040;-81
2023/09/01 03:54:36;;;;;;;4.13;1.40;;;;;;;;;;5040507;28;20029;-81
2023/09/01 03:57:02;;;;;;;2.90;1.15;;;;;;;;;;5048626;28;20037;-81
2023/09/01 03:59:28;;;;;;;4.53;2.10;;;;;;;;;;5057465;28;20080;-83
2023/09/01 04:01:54;;;;;;;3.15;1.50;;;;;;;;;;5059283;28;20136;-82
2023/09/01 04:04:20;;;;;;;3.05;1.20;;;;;;;;;;5045128;28;20069;-83
2023/09/01 04:06:46;;;;;;;2.03;1.10;;;;;;;;;;5050813;28;20027;-83
2023/09/01 04:09:12;;;;;;;3.15;1.67;;;;;;;;;;5051498;28;20028;-83
2023/09/01 04:11:38;;;;;;;2.35;1.17;;;;;;;;;;5051832;28;20082;-82
2023/09/01 04:14:06;;;;;;;4.70;1.30;;;;;;;;;;5041331;28;20529;-83
2023/09/01 04:16:32;;;;;;;2.15;1.20;;;;;;;;;;5053264;28;20032;-82
2023/09/01 04:18:58;;;;;;;4.43;1.35;;;;;;;;;;5050798;28;20025;-83
2023/09/01 04:21:24;;;;;;;2.78;1.20;;;;;;;;;;5054844;28;20024;-84
2023/09/01 04:23:50;;;;;;;2.28;1.40;;;;;;;;;;5047037;28;20037;-83
2023/09/01 04:26:17;;;;;;;3.55;1.63;;;;;;;;;;5051016;28;20029;-83
2023/09/01 04:28:42;;;;;;;3.75;1.67;;;;;;;;;;5049876;28;20047;-84
2023/09/01 04:31:14;;;;;;;8.98;1.65;;;;;;;;;;5045968;28;20055;-84
2023/09/01 04:33:40;;;;;;;3.13;1.80;;;;;;;;;;5042898;28;20051;-83
2023/09/01 04:36:06;;;;;;;5.40;1.50;;;;;;;;;;5031113;28;20029;-82
2023/09/01 04:38:32;;;;;;;3.35;1.48;;;;;;;;;;5038278;28;20028;-84
2023/09/01 04:41:00;;;;;;;3.60;2.30;;;;;;;;;;5045530;28;20028;-83
2023/09/01 04:43:29;;;;;;;3.33;1.38;;;;;;;;;;5048246;28;20029;-83
2023/09/01 04:45:56;;;;;;;3.13;1.60;;;;;;;;;;5039794;28;20025;-83
2023/09/01 04:48:22;;;;;;;3.33;1.40;;;;;;;;;;5042887;28;20029;-83
2023/09/01 04:50:48;;;;;;;7.05;1.50;;;;;;;;;;5047424;28;20067;-81
2023/09/01 04:53:15;;;;;;;6.30;1.40;;;;;;;;;;5038303;28;20040;-82
2023/09/01 04:55:41;;;;;;;2.55;1.50;;;;;;;;;;5033190;28;22409;-83
2023/09/01 04:58:06;;;;;;;2.70;1.27;;;14.80;99.90;;;;;;5032040;28;20049;-81
2023/09/01 05:00:32;;;;;;;2.53;1.30;;;;;;;;;;5047829;28;20543;-83
2023/09/01 05:02:58;;;;;;;4.82;1.58;;;;;;;;;;5051223;28;20029;-83
2023/09/01 05:05:24;;;;;;;4.82;2.00;;;;;;;;;;5047498;28;20511;-82
2023/09/01 05:07:50;;;;;;;4.15;1.85;;;;;;;;;;5051620;28;20039;-82
2023/09/01 05:10:16;;;;;;;2.35;1.23;;;;;;;;;;5041698;28;20032;-82
2023/09/01 05:12:42;;;;;;;1.48;1.10;;;;;;;;;;5044389;28;20040;-81
2023/09/01 05:15:08;;;;;;;3.88;1.48;;;;;;;;;;5036991;28;20040;-82
2023/09/01 05:17:34;;;;;;;2.45;1.27;;;;;;;;;;5051566;28;20034;-82
2023/09/01 05:20:00;;;;;;;2.30;1.65;;;;;;;;;;5050869;28;20029;-82
2023/09/01 05:22:26;;;;;;;2.28;1.05;;;;;;;;;;5036930;28;20178;-82
2023/09/01 05:24:53;;;;;;;5.30;1.25;;;;;;;;;;5041404;28;20356;-81
2023/09/01 05:27:19;;;;;;;1.88;1.10;;;;;;;;;;5040928;28;20099;-82
2023/09/01 05:29:52;;;;;;;8.00;1.27;;;;;;;;;;5044792;28;20028;-83
2023/09/01 05:32:18;;;;;;;4.22;1.13;;;;;;;;;;5038718;28;20074;-82
2023/09/01 05:34:44;;;;;;;3.67;1.63;;;;;;;;;;5015303;28;20036;-83
2023/09/01 05:37:14;;;;;;;5.82;1.50;;;;;;;;;;5040772;28;20116;-82
2023/09/01 05:39:40;;;;;;;2.92;1.42;;;;;;;;;;5038590;28;20649;-82
2023/09/01 05:42:07;;;;;;;3.15;1.60;;;;;;;;;;5039656;28;20388;-84
2023/09/01 05:44:33;;;;;;;3.03;1.42;;;;;;;;;;5032180;28;20392;-82
2023/09/01 05:46:59;;;;;;;4.25;2.10;;;;;;;;;;5036047;28;20017;-82
2023/09/01 05:49:25;;;;;;;1.98;1.15;;;;;;;;;;5040238;28;20029;-83
2023/09/01 05:51:52;;;;;;;1.52;1.05;;;;;;;;;;5041280;28;20380;-81
2023/09/01 05:54:18;;;;;;;2.42;0.90;;;;;;;;;;5018441;28;20488;-83
2023/09/01 05:56:45;;;;;;;2.33;1.17;;;;;;;;;;5038981;28;20124;-83
2023/09/01 05:59:10;;;;;;;3.17;1.45;;;;;;;;;;5041807;28;20414;-82
2023/09/01 06:01:36;;;;;;;4.95;1.50;;;;;;;;;;5033280;28;20060;-83
2023/09/01 06:04:05;;;;;;;3.38;1.02;;;;;;;;;;5033256;28;20558;-81
2023/09/01 06:06:32;;;;;;;2.92;1.25;;;;;;;;;;5027377;28;20029;-80
2023/09/01 06:08:59;;;;;;;3.22;1.75;;;;;;;;;;5035738;28;20037;-81
2023/09/01 06:11:25;;;;;;;2.17;1.00;;;;;;;;;;5042661;28;20036;-81
2023/09/01 06:13:51;;;;;;;2.22;1.00;;;;;;;;;;5042540;28;20025;-82
2023/09/01 06:16:17;;;;;;;1.70;0.93;;;;;;;;;;5051367;28;20040;-82
2023/09/01 06:18:42;;;;;;;1.75;1.17;;;;;;;;;;5042971;28;20610;-81
2023/09/01 06:21:10;;;;;;;3.03;0.93;;;;;;;;;;5053134;28;20110;-82
2023/09/01 06:23:40;;;;;;;2.83;1.50;;;;;;;;;;5041387;28;20024;-80
2023/09/01 06:26:06;;;;;;;1.55;0.90;;;;;;;;;;5038991;28;20040;-81
2023/09/01 06:28:33;;;;;;;2.63;0.80;;;;;;;;;;5037963;28;20029;-81
2023/09/01 06:30:59;;;;;;;3.63;1.00;;;;;;;;;;5042293;28;20178;-82
2023/09/01 06:33:25;;;;;;;3.83;1.27;;;;;;;;;;5037405;28;20379;-80
2023/09/01 06:35:51;;;;;;;2.42;1.02;;;;;;;;;;5040676;28;20067;-81
2023/09/01 06:38:17;;;;;;;2.80;1.60;;;;;;;;;;5045283;28;20032;-81
2023/09/01 06:40:43;;;;;;;1.90;1.15;;;;;;;;;;5038822;28;20079;-82
2023/09/01 06:43:09;;;;;;;2.70;1.10;;;;;;;;;;5030518;28;20033;-83
2023/09/01 06:45:35;;;;;;;1.65;0.77;;;;;;;;;;5032674;28;20550;-81
2023/09/01 06:48:02;;;;;;;3.78;0.90;;;;;;;;;;5034251;28;20542;-80
2023/09/01 06:50:28;;;;;;;3.22;1.13;;;;;;;;;;5039856;28;20029;-81
2023/09/01 06:52:54;;;;;;;1.73;0.85;;;;;;;;;;5029811;28;20071;-80
2023/09/01 06:55:20;;;;;;;1.40;0.90;;;;;;;;;;5032246;28;20120;-80
2023/09/01 06:57:46;;;;;;;1.42;0.77;;;;;;;;;;5036219;28;20084;-81
2023/09/01 07:00:14;;;;;;;1.30;0.70;;;;;;;;;;5035551;28;20025;-81
2023/09/01 07:02:40;;;;;;;3.95;0.80;;;;;;;;;;5033939;28;20033;-81
2023/09/01 07:05:06;;;;;;;6.15;0.90;;;;;;;;;;5041801;28;20048;-82
2023/09/01 07:07:32;;;;;;;4.38;1.33;;;;;;;;;;5032527;28;20035;-79
2023/09/01 07:09:58;;;;;;;4.28;0.88;;;;;;;;;;5041221;28;20021;-81
2023/09/01 07:12:24;;;;;;;3.83;0.93;;;;;;;;;;5043378;28;20078;-82
2023/09/01 07:14:50;;;;;;;1.45;0.73;;;;;;;;;;5041584;28;20033;-81
2023/09/01 07:17:21;;;;;;;1.33;0.73;;;;;;;;;;5044552;28;20021;-81
2023/09/01 07:19:47;;;;;;;1.63;0.85;;;;;;;;;;5047217;28;20135;-83
2023/09/01 07:22:13;;;;;;;5.20;1.02;;;;;;;;;;5041105;28;20571;-81
2023/09/01 07:24:39;;;;;;;4.53;1.40;;;;;;;;;;5027039;28;20025;-82
2023/09/01 07:27:06;;;;;;;7.30;3.53;;;;;;;;;;5041491;28;20033;-82
2023/09/01 07:29:32;;;;;;;3.65;1.58;;;;;;;;;;5041301;28;20478;-83
2023/09/01 07:32:01;;;;;;;3.30;1.40;;;;;;;;;;5047415;28;20086;-83
2023/09/01 07:34:27;;;;;;;1.85;0.70;;;;;;;;;;5034118;28;20039;-81
2023/09/01 07:36:53;;;;;;;2.30;1.00;;;;;;;;;;5030955;28;20108;-83
2023/09/01 07:39:19;;;;;;;2.90;1.10;;;17.30;99.90;;;;;;5040380;28;20108;-82
2023/09/01 07:41:45;;;;;;;3.58;1.30;;;;;;;;;;5041137;28;20025;-81
2023/09/01 07:44:16;;;;;;;1.63;0.82;;;;;;;;;;5022947;28;20033;-84
2023/09/01 07:46:42;;;;;;;1.92;0.65;;;;;;;;;;5041404;28;20031;-80
2023/09/01 07:49:08;;;;;;;4.25;1.20;;;;;;;;;;5040303;28;20527;-79
2023/09/01 07:51:34;;;;;;;2.75;1.08;;;;;;;;;;5042499;28;20498;-78
2023/09/01 07:54:03;;;;;;;1.45;0.70;;;;;;;;;;5032175;28;20139;-79
2023/09/01 07:56:28;;;;;;;2.22;0.73;;;;;;;;;;5026752;28;20573;-82
2023/09/01 07:58:54;;;;;;;3.28;1.05;;;;;;;;;;5041699;28;20104;-81
2023/09/01 08:01:20;;;;;;;1.33;0.70;;;;;;;;;;5038718;28;20502;-79
2023/09/01 08:03:46;;;;;;;1.70;0.80;;;;;;;;;;5032905;28;23441;-80
2023/09/01 08:06:12;;;;;;;5.38;0.50;;;;;;;;;;5029519;28;20041;-80
2023/09/01 08:08:38;;;;;;;2.13;0.63;;;;;;;;;;5046791;28;20033;-79
2023/09/01 08:11:04;;;;;;;1.65;0.73;;;;;;;;;;5054408;28;20037;-82
2023/09/01 08:13:30;;;;;;;1.67;0.90;;;;;;;;;;5038860;28;20040;-82
2023/09/01 08:15:56;;;;;;;1.77;0.95;;;;;;;;;;5034793;28;20082;-77
2023/09/01 08:18:22;;;;;;;2.22;0.88;;;;;;;;;;5044498;28;20033;-79
2023/09/01 08:20:48;;;;;;;0.88;0.52;;;;;;;;;;5043559;28;20036;-83
2023/09/01 08:23:14;;;;;;;2.38;0.60;;;;;;;;;;5046112;28;20071;-82
2023/09/01 08:25:40;;;;;;;1.02;0.45;;;;;;;;;;5046505;28;20033;-82
2023/09/01 08:28:07;;;;;;;0.68;0.45;;;;;;;;;;5049445;28;20299;-83
2023/09/01 08:30:33;;;;;;;0.90;0.35;;;;;;;;;;5043769;28;20029;-80
2023/09/01 08:33:04;;;;;;;0.98;0.45;;;;;;;;;;5046259;28;20036;-81
2023/09/01 08:35:30;;;;;;;1.02;0.60;;;;;;;;;;5038071;28;20060;-83
2023/09/01 08:37:56;;;;;;;1.75;0.47;;;;;;;;;;5039380;28;20053;-81
2023/09/01 08:40:22;;;;;;;1.90;0.63;;;;;;;;;;5042836;28;20372;-82
2023/09/01 08:42:48;;;;;;;1.85;0.30;;;;;;;;;;5047251;28;20033;-82
2023/09/01 08:45:15;;;;;;;2.85;0.40;;;;;;;;;;5032572;28;20029;-82
2023/09/01 08:47:46;;;;;;;1.85;0.35;;;20.40;99.90;;;;;;5043084;28;20083;-82
2023/09/01 08:50:12;;;;;;;2.08;0.40;;;;;;;;;;5042230;28;20495;-84
2023/09/01 08:52:39;;;;;;;1.40;0.30;;;;;;;;;;5045598;28;20063;-82
2023/09/01 08:55:05;;;;;;;2.15;0.73;;;;;;;;;;5038018;28;20025;-80
2023/09/01 08:57:32;;;;;;;2.78;0.40;;;;;;;;;;5042031;28;20065;-82
2023/09/01 08:59:58;;;;;;;1.48;0.50;;;;;;;;;;5036541;28;20033;-82
2023/09/01 09:02:24;;;;;;;1.48;0.45;;;;;;;;;;5016268;28;20040;-82
2023/09/01 09:04:50;;;;;;;3.50;0.40;;;;;;;;;;5018505;28;20116;-80
2023/09/01 09:07:17;;;;;;;2.10;0.20;;;;;;;;;;5027588;28;20724;-81
2023/09/01 09:09:56;;;;;;;1.42;0.30;;;20.10;99.90;;;;;;5026040;28;20053;-82
2023/09/01 09:12:24;;;;;;;1.10;0.20;;;20.60;99.90;;;;;;5029495;28;20032;-83
2023/09/01 09:14:52;;;;;;;1.55;0.30;;;;;;;;;;5018395;28;20044;-83
2023/09/01 09:17:20;;;;;;;1.25;0.40;;;;;;;;;;5046259;28;20094;-83
2023/09/01 09:19:54;;;;;;;5.35;0.40;;;20.90;99.90;;;;;;5047057;28;20033;-83
2023/09/01 09:22:21;;;;;;;0.90;0.40;;;;;;;;;;5038128;28;20021;-84
2023/09/01 09:24:47;;;;;;;4.32;0.40;;;;;;;;;;5029010;28;20041;-83
2023/09/01 09:27:17;;;;;;;0.30;0.20;;;;;;;;;;5027920;28;20037;-83
2023/09/01 09:29:44;;;;;;;0.73;0.30;;;;;;;;;;5041041;28;20350;-87
2023/09/01 09:32:20;;;;;;;0.80;0.30;;;22.40;99.90;;;;;;5045225;28;20028;-86
2023/09/01 09:35:06;;;;;;;5.15;0.88;;;23.60;99.90;;;;;;5032498;28;20122;-85
2023/09/01 09:37:33;;;;;;;0.47;0.38;;;23.10;99.90;;;;;;5039357;28;20407;-85
2023/09/01 09:40:16;;;;;;;0.60;0.20;;;23.90;99.90;;;;;;5041992;28;20025;-84
2023/09/01 09:42:45;;;;;;;1.75;0.43;;;22.60;99.90;;;;;;5039170;28;20025;-84
2023/09/01 09:45:29;;;;;;;2.50;0.57;;;23.20;99.90;;;;;;5041643;28;20032;-84
2023/09/01 09:47:57;;;;;;;1.08;0.57;;;22.80;99.90;;;;;;5040094;28;20061;-84
2023/09/01 09:50:24;;;;;;;0.28;0.22;;;;;;;;;;5040977;28;20033;-84
2023/09/01 09:52:55;;;;;;;0.75;0.20;;;;;;;;;;5045274;28;20378;-82
2023/09/01 09:55:29;;;;;;;1.02;0.38;;;23.10;99.90;;;;;;5025554;28;20037;-82
2023/09/01 09:58:02;;;;;;;1.42;0.28;;;22.80;99.90;;;;;;5044131;28;20120;-83
2023/09/01 10:00:30;;;;;;;1.23;0.20;;;22.80;99.90;;;;;;5046704;28;20112;-84
2023/09/01 10:03:03;;;;;;;0.57;0.30;;;22.80;99.90;;;;;;5043200;28;20024;-82
2023/09/01 10:05:31;;;;;;;2.08;0.30;;;23.00;99.90;;;;;;5038225;28;20036;-85
2023/09/01 10:08:00;;;;;;;0.75;0.20;;;23.40;99.90;;;;;;5045656;28;20071;-85
2023/09/01 10:10:26;;;;;;;0.77;0.30;;;;;;;;;;5033369;28;20033;-83
2023/09/01 10:12:52;;;;;;;0.68;0.43;;;24.50;99.90;;;;;;5025392;28;20757;-85
2023/09/01 10:15:19;;;;;;;0.80;0.28;;;;;;;;;;5028035;28;20029;-86
2023/09/01 10:17:47;;;;;;;0.40;0.20;;;23.30;99.90;;;;;;5027209;28;20463;-83
2023/09/01 10:20:13;;;;;;;1.00;0.22;;;;;;;;;;5029743;28;20029;-83
2023/09/01 10:22:39;;;;;;;1.48;0.47;;;;;;;;;;5038368;28;20030;-85
2023/09/01 10:25:20;;;;;;;1.27;0.20;;;23.30;99.90;;;;;;5028000;28;20943;-83
2023/09/01 10:28:10;;;;;;;1.42;0.28;;;23.70;99.90;;;;;;5040869;28;20040;-81
2023/09/01 10:30:38;;;;;;;0.43;0.20;;;23.10;99.90;;;;;;5039857;28;20113;-85
2023/09/01 10:33:17;;;;;;;0.38;0.10;;;;;;;;;;5029948;28;20043;-82
2023/09/01 10:35:44;;;;;;;0.95;0.30;;;;;;;;;;5037184;28;20086;-84
2023/09/01 10:38:14;;;;;;;5.18;0.43;;;;;;;;;;5037327;28;20112;-82
2023/09/01 10:40:41;;;;;;;1.25;0.28;;;;;;;;;;5030797;28;20083;-82
2023/09/01 10:43:07;;;;;;;0.47;0.20;;;;;;;;;;5040202;28;20492;-82
2023/09/01 10:45:33;;;;;;;1.38;0.30;;;;;;;;;;5045350;28;20029;-82
2023/09/01 10:47:59;;;;;;;3.50;0.57;;;;;;;;;;5042037;28;20108;-82
2023/09/01 10:50:25;;;;;;;2.03;0.38;;;;;;;;;;5043008;28;20018;-82
2023/09/01 10:53:29;;;;;;;2.83;0.30;;;23.60;99.90;;;;;;5039617;28;21887;-85
2023/09/01 10:56:11;;;;;;;0.85;0.30;;;23.40;99.90;;;;;;5039834;28;20069;-82
2023/09/01 10:58:57;;;;;;;1.52;0.30;;;22.70;99.90;;;;;;5038833;28;20033;-82
2023/09/01 11:01:24;;;;;;;1.13;0.30;;;22.80;99.90;;;;;;5028341;28;20048;-83
2023/09/01 11:03:53;;;;;;;0.85;0.30;;;;;;;;;;5037172;28;20541;-83
2023/09/01 11:06:20;;;;;;;0.40;0.17;;;;;;;;;;5039073;28;20029;-82
2023/09/01 11:08:59;;;;;;;0.85;0.20;;;;;;;;;;5046972;28;20982;-82
2023/09/01 11:11:25;;;;;;;3.03;0.20;;;;;;;;;;5043366;28;20032;-83
2023/09/01 11:14:09;;;;;;;0.60;0.30;;;;;;;;;;5037212;28;20078;-84
2023/09/01 11:16:35;;;;;;;1.55;0.28;;;;;;;;;;5040105;28;20131;-83
2023/09/01 11:19:02;;;;;;;0.55;0.10;;;23.20;99.90;;;;;;5032921;28;20132;-84
2023/09/01 11:21:28;;;;;;;0.85;0.28;;;;;;;;;;5027358;28;20029;-84
2023/09/01 11:24:01;;;;;;;0.80;0.25;;;22.70;99.90;;;;;;5042362;28;20043;-86
2023/09/01 11:26:27;;;;;;;;;;;22.30;99.90;;;;;;5042978;28;20044;-89
2023/09/01 11:28:54;;;;;;;0.80;0.35;;;;;;;;;;5035497;28;19908;-84
2023/09/01 11:31:20;;;;;;;1.02;0.30;;;;;;;;;;5042433;28;20037;-85
2023/09/01 11:33:53;;;;;;;2.58;0.15;;;21.80;99.90;;;;;;5036793;28;20437;-85
2023/09/01 11:36:19;;;;;;;2.33;0.73;;;;;;;;;;5035565;28;20036;-84
2023/09/01 11:38:45;;;;;;;1.17;0.40;;;;;;;;;;5047339;28;20029;-86
2023/09/01 11:41:18;;;;;;;2.72;0.45;;;21.20;99.90;;;;;;5045072;28;20087;-85
2023/09/01 11:43:44;;;;;;;0.75;0.20;;;;;;;;;;5037532;28;20036;-85
2023/09/01 11:46:10;;;;;;;1.63;0.43;;;;;;;;;;5039680;28;20089;-84
2023/09/01 11:48:36;;;;;;;2.75;0.50;;;;;;;;;;5023566;28;20494;-84
2023/09/01 11:51:03;;;;;;;1.23;0.50;;;;;;;;;;5038551;28;20649;-85
2023/09/01 11:53:30;;;;;;;4.50;0.45;;;;;;;;;;5038409;28;20601;-84
2023/09/01 11:55:58;;;;;;;2.25;0.40;;;;;;;;;;4999581;28;20039;-85
2023/09/01 11:58:33;;;;;;;0.70;0.20;;;21.00;99.90;;;;;;5037902;28;20115;-84
2023/09/01 12:01:16;;;;;;;4.40;2.83;;;22.10;99.90;;;;;;5035685;28;20479;-89
2023/09/01 12:03:45;;;;;;;3.50;0.75;;;;;;;;;;5038938;28;20037;-84
2023/09/01 12:06:21;;;;;;;1.52;0.55;;;22.50;99.90;;;;;;5034089;28;20103;-89
2023/09/01 12:08:47;;;;;;;2.15;0.32;;;;;;;;;;5037766;28;21145;-85
2023/09/01 12:11:13;;;;;;;3.00;0.82;;;;;;;;;;5037303;28;20377;-85
2023/09/01 12:13:40;;;;;;;2.22;0.93;;;;;;;;;;5016867;28;20075;-86
2023/09/01 12:16:06;;;;;;;3.20;0.32;;;;;;;;;;5039812;28;20025;-86
2023/09/01 12:18:33;;;;;;;1.80;0.82;;;;;;;;;;5020841;28;20511;-86
2023/09/01 12:20:59;;;;;;;0.38;0.30;;;;;;;;;;5045393;28;20068;-85
2023/09/01 12:23:33;;;;;;;1.55;0.60;;;22.30;99.90;;;;;;5038619;28;20052;-85
2023/09/01 12:25:59;;;;;;;0.77;0.25;;;;;;;;;;5040756;28;20029;-85
2023/09/01 12:28:27;;;;;;;0.73;0.30;;;22.20;99.90;;;;;;5043488;28;20025;-88
2023/09/01 12:30:53;;;;;;;0.40;0.20;;;;;;;;;;5046615;28;20091;-85
2023/09/01 12:33:19;;;;;;;0.60;0.30;;;;;;;;;;5050623;28;20288;-88
2023/09/01 12:35:45;;;;;;;1.17;0.43;;;;;;;;;;5063273;28;20316;-83
2023/09/01 12:38:11;;;;;;;0.55;0.20;;;;;;;;;;5063953;28;20119;-84
2023/09/01 12:40:37;;;;;;;1.02;0.52;;;;;;;;;;5047349;28;20067;-88
2023/09/01 12:43:03;;;;;;;0.70;0.20;;;;;;;;;;5043806;28;20543;-89
2023/09/01 12:45:29;;;;;;;0.25;0.15;;;;;;;;;;5038927;28;20037;-87
2023/09/01 12:47:55;;;;;;;3.65;0.40;;;;;;;;;;5028772;28;20115;-87
2023/09/01 12:50:22;;;;;;;0.45;0.20;;;;;;;;;;5039063;28;20237;-86
2023/09/01 12:52:48;;;;;;;0.55;0.22;;;;;;;;;;5038694;28;20048;-87
2023/09/01 12:55:14;;;;;;;2.70;0.20;;;;;;;;;;5039507;28;20037;-87
2023/09/01 12:57:40;;;;;;;0.73;0.30;;;;;;;;;;5043954;28;20032;-89
2023/09/01 13:00:06;;;;;;;0.73;0.32;;;;;;;;;;5041727;28;20055;-84
2023/09/01 13:02:32;;;;;;;0.52;0.17;;;;;;;;;;5042588;28;20028;-86
2023/09/01 13:04:58;;;;;;;1.55;0.20;;;;;;;;;;5040998;28;20052;-86
2023/09/01 13:07:24;;;;;;;1.20;0.43;;;;;;;;;;5037572;28;20132;-86
2023/09/01 13:09:51;;;;;;;1.30;0.45;;;24.10;99.90;;;;;;5039426;28;20097;-86
2023/09/01 13:12:17;;;;;;;7.63;0.35;;;;;;;;;;5043248;28;20025;-82
2023/09/01 13:14:43;;;;;;;0.30;0.20;;;;;;;;;;5034827;28;20075;-86
2023/09/01 13:17:10;;;;;;;1.67;0.77;;;;;;;;;;5032875;28;20055;-83
2023/09/01 13:19:36;;;;;;;0.68;0.30;;;;;;;;;;5039381;28;20041;-84
2023/09/01 13:22:02;;;;;;;2.47;0.60;;;24.90;99.90;;;;;;5040548;28;20034;-82
2023/09/01 13:24:28;;;;;;;1.50;0.45;;;;;;;;;;5033817;28;20021;-81
2023/09/01 13:26:54;;;;;;;0.98;0.20;;;;;;;;;;5035895;28;20098;-82
2023/09/01 13:29:20;;;;;;;0.47;0.10;;;;;;;;;;5042986;28;20032;-83
2023/09/01 13:31:46;;;;;;;0.45;0.20;;;;;;;;;;5043560;28;20242;-83
2023/09/01 13:34:12;;;;;;;0.85;0.30;;;;;;;;;;5030225;28;20132;-83
2023/09/01 13:36:38;;;;;;;0.40;0.20;;;;;;;;;;5040532;28;20032;-83
2023/09/01 13:39:04;;;;;;;0.47;0.20;;;;;;;;;;5037296;28;20021;-82
2023/09/01 13:41:30;;;;;;;2.28;0.25;;;;;;;;;;5046292;28;21509;-82
2023/09/01 13:43:56;;;;;;;0.85;0.20;;;;;;;;;;5038338;28;20044;-81
2023/09/01 13:46:26;;;;;;;0.65;0.22;;;23.10;99.90;;;;;;5046915;28;20044;-83
2023/09/01 13:48:56;;;;;;;0.90;0.38;;;23.10;99.90;;;;;;5041575;28;20036;-84
2023/09/01 13:51:23;;;;;;;1.13;0.35;;;;;;;;;;5040418;28;20021;-83
2023/09/01 13:53:49;;;;;;;1.85;0.45;;;;;;;;;;5042271;28;20128;-81
2023/09/01 13:56:15;;;;;;;1.90;0.30;;;;;;;;;;5048374;28;20027;-83
2023/09/01 13:58:41;;;;;;;1.00;0.28;;;;;;;;;;5042860;28;20025;-82
2023/09/01 14:01:07;;;;;;;0.60;0.20;;;;;;;;;;5036659;28;20072;-82
2023/09/01 14:03:33;;;;;;;0.98;0.30;;;;;;;;;;5031886;28;20675;-81
2023/09/01 14:06:00;;;;;;;2.25;0.50;;;;;;;;;;5035722;28;20041;-84
2023/09/01 14:08:27;;;;;;;1.13;0.30;;;21.80;99.90;;;;;;5017304;28;20018;-81
2023/09/01 14:10:53;;;;;;;1.42;0.28;;;;;;;;;;5032893;28;20025;-80
2023/09/01 14:13:19;;;;;;;0.43;0.17;;;;;;;;;;5028884;28;20034;-82
2023/09/01 14:15:53;;;;;;;0.70;0.30;;;;;;;;;;5043171;28;20111;-81
2023/09/01 14:18:19;;;;;;;0.10;0.10;;;;;;;;;;5035772;28;20032;-82
2023/09/01 14:20:48;;;;;;;0.30;0.25;;;;;;;;;;5042514;28;20033;-82
2023/09/01 14:23:14;;;;;;;3.15;0.52;;;;;;;;;;5032593;28;20820;-84